createdAt,value
2023-02-03T00:00:44.898Z,1.13
2023-02-03T00:01:47.895Z,0.98
2023-02-03T00:02:49.944Z,0.77
2023-02-03T00:03:52.967Z,1.13
2023-02-03T00:04:54.945Z,1.17
2023-02-03T00:05:58.006Z,0.90
2023-02-03T00:07:00.995Z,0.77
2023-02-03T00:08:04.849Z,0.80
2023-02-03T00:09:07.872Z,0.95
2023-02-03T00:10:10.866Z,0.80
2023-02-03T00:11:14.085Z,0.90
2023-02-03T00:12:16.087Z,0.80
2023-02-03T00:13:19.285Z,0.85
2023-02-03T00:14:21.234Z,0.70
2023-02-03T00:15:25.526Z,0.70
2023-02-03T00:16:27.631Z,0.77
2023-02-03T00:17:30.601Z,0.60
2023-02-03T00:18:32.749Z,0.70
2023-02-03T00:19:35.670Z,0.50
2023-02-03T00:20:38.818Z,0.80
2023-02-03T00:21:40.824Z,0.77
2023-02-03T00:22:43.787Z,0.70
2023-02-03T00:23:45.862Z,0.70
2023-02-03T00:24:48.807Z,0.50
2023-02-03T00:25:50.765Z,0.70
2023-02-03T00:26:53.671Z,0.95
2023-02-03T00:27:55.604Z,0.90
2023-02-03T00:29:00.597Z,0.80
2023-02-03T00:30:02.587Z,0.77
2023-02-03T00:31:07.464Z,0.60
2023-02-03T00:32:09.579Z,0.77
2023-02-03T00:33:12.579Z,0.70
2023-02-03T00:34:14.564Z,0.50
2023-02-03T00:35:17.559Z,0.60
2023-02-03T00:36:19.514Z,0.70
2023-02-03T00:37:23.037Z,0.70
2023-02-03T00:38:27.645Z,1.00
2023-02-03T00:39:30.558Z,0.68
2023-02-03T00:40:32.511Z,0.90
2023-02-03T00:41:35.464Z,0.80
2023-02-03T00:42:37.398Z,0.70
2023-02-03T00:43:40.329Z,0.73
2023-02-03T00:44:42.439Z,0.60
2023-02-03T00:45:45.407Z,0.73
2023-02-03T00:46:48.758Z,0.70
2023-02-03T00:47:51.734Z,0.93
2023-02-03T00:48:53.861Z,0.60
2023-02-03T00:49:56.829Z,0.80
2023-02-03T00:50:58.806Z,0.75
2023-02-03T00:52:01.763Z,0.98
2023-02-03T00:53:03.754Z,0.55
2023-02-03T00:54:06.731Z,0.70
2023-02-03T00:55:09.523Z,0.70
2023-02-03T00:56:13.457Z,0.80
2023-02-03T00:57:15.410Z,1.13
2023-02-03T00:58:18.379Z,0.70
2023-02-03T00:59:20.293Z,0.65
2023-02-03T01:00:23.281Z,0.80
2023-02-03T01:01:25.541Z,0.50
2023-02-03T01:02:29.995Z,0.85
2023-02-03T01:03:31.976Z,0.73
2023-02-03T01:04:34.893Z,0.60
2023-02-03T01:05:37.352Z,0.82
2023-02-03T01:06:41.858Z,0.70
2023-02-03T01:07:43.783Z,0.75
2023-02-03T01:08:47.455Z,0.80
2023-02-03T01:09:49.451Z,0.57
2023-02-03T01:10:52.368Z,0.65
2023-02-03T01:11:55.559Z,0.68
2023-02-03T01:12:57.507Z,0.70
2023-02-03T01:14:01.735Z,0.70
2023-02-03T01:15:04.261Z,0.60
2023-02-03T01:16:09.377Z,0.60
2023-02-03T01:17:11.374Z,0.57
2023-02-03T01:18:15.806Z,0.70
2023-02-03T01:19:17.945Z,0.85
2023-02-03T01:20:21.552Z,0.47
2023-02-03T01:21:25.755Z,0.70
2023-02-03T01:22:31.222Z,0.57
2023-02-03T01:23:33.237Z,0.60
2023-02-03T01:24:36.127Z,0.50
2023-02-03T01:25:38.067Z,0.52
2023-02-03T01:26:40.957Z,0.60
2023-02-03T01:27:42.988Z,0.60
2023-02-03T01:28:51.429Z,0.50
2023-02-03T01:29:53.386Z,0.50
2023-02-03T01:30:56.322Z,0.68
2023-02-03T01:31:59.353Z,0.70
2023-02-03T01:33:01.350Z,0.50
2023-02-03T01:34:05.668Z,0.60
2023-02-03T01:35:08.009Z,0.50
2023-02-03T01:36:11.600Z,0.63
2023-02-03T01:37:14.480Z,0.57
2023-02-03T01:38:17.506Z,0.60
2023-02-03T01:39:19.616Z,0.55
2023-02-03T01:40:22.636Z,0.40
2023-02-03T01:41:26.719Z,0.70
2023-02-03T01:42:33.851Z,0.65
2023-02-03T01:43:38.246Z,0.55
2023-02-03T01:44:44.017Z,0.50
2023-02-03T01:45:46.504Z,0.50
2023-02-03T01:46:51.671Z,0.60
2023-02-03T01:47:56.898Z,0.50
2023-02-03T01:49:05.939Z,0.60
2023-02-03T01:50:14.252Z,0.77
2023-02-03T01:51:16.248Z,0.52
2023-02-03T01:52:19.401Z,0.50
2023-02-03T01:53:22.164Z,0.45
2023-02-03T01:54:29.425Z,0.70
2023-02-03T01:55:35.326Z,0.75
2023-02-03T01:56:42.459Z,0.60
2023-02-03T01:57:48.741Z,0.50
2023-02-03T01:58:52.516Z,0.40
2023-02-03T01:59:57.483Z,0.45
2023-02-03T02:01:00.691Z,0.55
2023-02-03T02:02:04.585Z,0.80
2023-02-03T02:03:09.473Z,0.57
2023-02-03T02:04:13.066Z,0.50
2023-02-03T02:05:21.306Z,0.98
2023-02-03T02:06:23.221Z,0.50
2023-02-03T02:07:26.439Z,0.80
2023-02-03T02:08:29.857Z,1.13
2023-02-03T02:09:33.066Z,0.75
2023-02-03T02:10:35.207Z,0.60
2023-02-03T02:11:38.109Z,0.65
2023-02-03T02:12:40.162Z,0.60
2023-02-03T02:13:46.240Z,0.50
2023-02-03T02:14:48.839Z,0.60
2023-02-03T02:15:59.599Z,0.50
2023-02-03T02:17:06.250Z,0.60
2023-02-03T02:18:25.290Z,0.60
2023-02-03T02:19:53.331Z,0.60
2023-02-03T02:21:25.444Z,0.52
2023-02-03T02:22:33.496Z,0.63
2023-02-03T02:23:58.632Z,0.40
2023-02-03T02:25:26.131Z,0.55
2023-02-03T02:27:00.221Z,0.60
2023-02-03T02:28:46.601Z,0.80
2023-02-03T02:30:14.213Z,0.68
2023-02-03T02:31:50.012Z,0.60
2023-02-03T02:33:06.325Z,0.70
2023-02-03T02:34:14.883Z,0.70
2023-02-03T02:35:29.703Z,0.80
2023-02-03T02:36:39.101Z,0.65
2023-02-03T02:37:49.655Z,0.95
2023-02-03T02:38:59.405Z,0.70
2023-02-03T02:40:11.407Z,0.70
2023-02-03T02:41:20.167Z,0.50
2023-02-03T02:42:33.336Z,0.65
2023-02-03T02:43:41.777Z,0.73
2023-02-03T02:44:50.339Z,0.60
2023-02-03T02:45:56.368Z,0.80
2023-02-03T02:47:06.337Z,0.65
2023-02-03T02:48:13.126Z,0.60
2023-02-03T02:49:20.420Z,0.93
2023-02-03T02:50:26.544Z,0.55
2023-02-03T02:51:32.439Z,0.63
2023-02-03T02:52:39.962Z,0.80
2023-02-03T02:53:47.967Z,0.65
2023-02-03T02:54:53.773Z,0.93
2023-02-03T02:55:58.333Z,0.65
2023-02-03T02:57:03.415Z,0.73
2023-02-03T02:58:09.914Z,1.00
2023-02-03T02:59:12.623Z,0.90
2023-02-03T03:00:16.210Z,1.05
2023-02-03T03:01:19.249Z,0.80
2023-02-03T03:02:23.877Z,1.15
2023-02-03T03:03:25.875Z,0.98
2023-02-03T03:04:31.193Z,0.90
2023-02-03T03:05:33.368Z,1.05
2023-02-03T03:06:41.063Z,2.13
2023-02-03T03:07:48.760Z,1.17
2023-02-03T03:08:57.595Z,1.08
2023-02-03T03:10:03.468Z,1.17
2023-02-03T03:11:06.904Z,0.98
2023-02-03T03:12:13.299Z,1.10
2023-02-03T03:13:21.990Z,0.90
2023-02-03T03:14:26.409Z,1.17
2023-02-03T03:15:33.541Z,0.85
2023-02-03T03:16:39.284Z,0.90
2023-02-03T03:17:46.773Z,1.15
2023-02-03T03:18:51.872Z,1.33
2023-02-03T03:19:57.217Z,1.30
2023-02-03T03:21:06.056Z,1.75
2023-02-03T03:22:12.554Z,1.48
2023-02-03T03:23:20.290Z,2.00
2023-02-03T03:24:28.889Z,1.30
2023-02-03T03:25:36.630Z,1.45
2023-02-03T03:26:44.426Z,1.60
2023-02-03T03:27:51.184Z,1.45
2023-02-03T03:29:01.824Z,1.60
2023-02-03T03:30:09.692Z,1.20
2023-02-03T03:31:11.807Z,1.30
2023-02-03T03:32:15.568Z,1.35
2023-02-03T03:33:20.431Z,1.45
2023-02-03T03:34:23.517Z,1.85
2023-02-03T03:35:32.256Z,1.42
2023-02-03T03:36:43.431Z,1.60
2023-02-03T03:37:51.294Z,1.80
2023-02-03T03:39:01.719Z,1.55
2023-02-03T03:40:09.907Z,1.45
2023-02-03T03:41:23.323Z,1.67
2023-02-03T03:42:31.759Z,1.42
2023-02-03T03:43:42.244Z,1.38
2023-02-03T03:44:51.351Z,1.60
2023-02-03T03:45:58.582Z,1.95
2023-02-03T03:47:07.871Z,1.50
2023-02-03T03:48:14.547Z,1.30
2023-02-03T03:49:21.448Z,1.25
2023-02-03T03:50:28.500Z,1.40
2023-02-03T03:51:36.187Z,2.05
2023-02-03T03:52:40.730Z,1.85
2023-02-03T03:53:45.438Z,1.40
2023-02-03T03:54:50.659Z,2.10
2023-02-03T03:55:54.327Z,1.50
2023-02-03T03:57:01.768Z,1.90
2023-02-03T03:58:07.401Z,1.73
2023-02-03T03:59:13.067Z,1.60
2023-02-03T04:00:18.329Z,1.10
2023-02-03T04:01:24.040Z,2.08
2023-02-03T04:02:27.039Z,1.80
2023-02-03T04:03:36.439Z,2.08
2023-02-03T04:04:40.830Z,1.77
2023-02-03T04:05:44.542Z,1.95
2023-02-03T04:06:46.539Z,1.60
2023-02-03T04:07:49.662Z,1.70
2023-02-03T04:08:51.916Z,2.00
2023-02-03T04:09:54.856Z,2.05
2023-02-03T04:10:56.984Z,1.23
2023-02-03T04:12:01.821Z,1.25
2023-02-03T04:13:05.098Z,1.33
2023-02-03T04:14:07.147Z,1.90
2023-02-03T04:15:10.719Z,2.00
2023-02-03T04:16:12.633Z,1.50
2023-02-03T04:17:15.611Z,1.70
2023-02-03T04:18:17.626Z,1.60
2023-02-03T04:19:20.564Z,1.65
2023-02-03T04:20:25.354Z,2.00
2023-02-03T04:21:28.515Z,1.67
2023-02-03T04:22:30.486Z,1.95
2023-02-03T04:23:33.440Z,1.30
2023-02-03T04:24:35.352Z,2.25
2023-02-03T04:25:38.327Z,1.40
2023-02-03T04:26:40.515Z,1.83
2023-02-03T04:27:43.462Z,1.25
2023-02-03T04:28:45.378Z,1.75
2023-02-03T04:29:48.361Z,1.27
2023-02-03T04:30:50.351Z,1.27
2023-02-03T04:31:53.327Z,1.20
2023-02-03T04:32:55.323Z,1.25
2023-02-03T04:33:58.255Z,1.50
2023-02-03T04:35:00.437Z,1.20
2023-02-03T04:36:05.256Z,0.90
2023-02-03T04:37:08.385Z,1.50
2023-02-03T04:38:10.389Z,1.10
2023-02-03T04:39:13.344Z,1.08
2023-02-03T04:40:15.345Z,1.02
2023-02-03T04:41:18.618Z,1.25
2023-02-03T04:42:20.550Z,0.80
2023-02-03T04:43:23.437Z,1.33
2023-02-03T04:44:25.360Z,1.13
2023-02-03T04:45:28.268Z,1.15
2023-02-03T04:46:30.398Z,1.20
2023-02-03T04:47:33.620Z,1.15
2023-02-03T04:48:35.568Z,1.08
2023-02-03T04:49:38.492Z,1.02
2023-02-03T04:50:40.433Z,0.80
2023-02-03T04:51:45.406Z,0.95
2023-02-03T04:52:47.492Z,1.25
2023-02-03T04:53:50.391Z,1.00
2023-02-03T04:54:52.520Z,1.10
2023-02-03T04:55:55.459Z,0.98
2023-02-03T04:56:57.412Z,1.00
2023-02-03T04:58:01.710Z,1.30
2023-02-03T04:59:03.849Z,1.20
2023-02-03T05:00:08.265Z,0.70
2023-02-03T05:01:10.616Z,1.30
2023-02-03T05:02:13.602Z,0.98
2023-02-03T05:03:15.647Z,0.95
2023-02-03T05:04:18.713Z,1.10
2023-02-03T05:05:21.018Z,1.42
2023-02-03T05:06:25.609Z,0.90
2023-02-03T05:07:28.961Z,1.02
2023-02-03T05:08:31.978Z,1.10
2023-02-03T05:09:33.901Z,0.95
2023-02-03T05:10:36.845Z,0.90
2023-02-03T05:11:38.869Z,1.10
2023-02-03T05:12:42.027Z,1.00
2023-02-03T05:13:44.014Z,0.75
2023-02-03T05:14:46.951Z,0.82
2023-02-03T05:15:48.912Z,0.90
2023-02-03T05:16:51.844Z,1.38
2023-02-03T05:17:54.500Z,0.90
2023-02-03T05:18:57.737Z,0.65
2023-02-03T05:19:59.649Z,0.70
2023-02-03T05:21:02.625Z,0.90
2023-02-03T05:22:04.555Z,1.00
2023-02-03T05:23:08.813Z,1.27
2023-02-03T05:24:10.835Z,0.98
2023-02-03T05:25:14.289Z,0.80
2023-02-03T05:26:16.588Z,0.70
2023-02-03T05:27:19.558Z,1.00
2023-02-03T05:28:21.516Z,0.70
2023-02-03T05:29:24.459Z,0.90
2023-02-03T05:30:26.729Z,0.77
2023-02-03T05:31:29.934Z,0.68
2023-02-03T05:32:33.053Z,0.98
2023-02-03T05:33:35.026Z,0.80
2023-02-03T05:34:37.947Z,0.70
2023-02-03T05:35:39.858Z,0.70
2023-02-03T05:36:42.780Z,1.20
2023-02-03T05:37:45.518Z,0.70
2023-02-03T05:38:50.544Z,0.50
2023-02-03T05:39:52.575Z,0.90
2023-02-03T05:41:12.803Z,0.60
2023-02-03T05:42:15.749Z,0.80
2023-02-03T05:43:17.762Z,0.95
2023-02-03T05:44:21.700Z,1.00
2023-02-03T05:45:23.683Z,0.63
2023-02-03T05:46:26.737Z,0.70
2023-02-03T05:47:29.684Z,0.75
2023-02-03T05:48:32.059Z,0.75
2023-02-03T05:49:35.145Z,0.90
2023-02-03T05:50:38.685Z,0.77
2023-02-03T05:51:42.235Z,0.70
2023-02-03T05:52:44.186Z,0.90
2023-02-03T05:53:47.076Z,0.90
2023-02-03T05:54:50.359Z,0.60
2023-02-03T05:55:53.364Z,0.60
2023-02-03T05:56:56.331Z,0.75
2023-02-03T05:57:59.965Z,0.90
2023-02-03T05:59:02.958Z,0.80
2023-02-03T06:00:07.309Z,0.77
2023-02-03T06:01:11.714Z,1.08
2023-02-03T06:02:13.710Z,1.05
2023-02-03T06:03:16.731Z,0.98
2023-02-03T06:04:18.912Z,0.68
2023-02-03T06:05:21.897Z,1.23
2023-02-03T06:06:23.853Z,0.60
2023-02-03T06:07:26.770Z,0.90
2023-02-03T06:08:28.787Z,0.77
2023-02-03T06:09:31.771Z,0.90
2023-02-03T06:10:35.279Z,0.90
2023-02-03T06:11:38.268Z,1.13
2023-02-03T06:12:40.239Z,0.98
2023-02-03T06:13:43.192Z,0.80
2023-02-03T06:14:45.093Z,0.80
2023-02-03T06:15:47.992Z,1.00
2023-02-03T06:16:50.000Z,1.23
2023-02-03T06:17:53.318Z,0.77
2023-02-03T06:18:58.799Z,0.70
2023-02-03T06:20:02.393Z,0.90
2023-02-03T06:21:05.621Z,0.90
2023-02-03T06:22:08.566Z,0.80
2023-02-03T06:23:11.510Z,1.00
2023-02-03T06:24:13.652Z,1.20
2023-02-03T06:25:16.629Z,0.88
2023-02-03T06:26:20.973Z,1.05
2023-02-03T06:27:23.067Z,0.80
2023-02-03T06:28:26.026Z,2.25
2023-02-03T06:29:28.052Z,0.60
2023-02-03T06:30:31.329Z,0.85
2023-02-03T06:31:34.558Z,0.70
2023-02-03T06:32:36.553Z,0.60
2023-02-03T06:33:39.478Z,0.80
2023-02-03T06:34:41.618Z,0.80
2023-02-03T06:35:44.561Z,0.55
2023-02-03T06:36:48.390Z,0.95
2023-02-03T06:37:51.305Z,0.80
2023-02-03T06:38:54.217Z,0.80
2023-02-03T06:39:56.226Z,0.70
2023-02-03T06:40:59.194Z,0.68
2023-02-03T06:42:02.527Z,0.65
2023-02-03T06:43:05.536Z,0.88
2023-02-03T06:44:07.919Z,0.70
2023-02-03T06:45:11.517Z,0.80
2023-02-03T06:46:13.462Z,0.60
2023-02-03T06:47:16.392Z,0.70
2023-02-03T06:48:18.319Z,0.57
2023-02-03T06:49:21.214Z,0.52
2023-02-03T06:50:23.204Z,0.60
2023-02-03T06:51:26.242Z,0.73
2023-02-03T06:52:28.202Z,0.55
2023-02-03T06:53:31.230Z,0.60
2023-02-03T06:54:33.244Z,0.50
2023-02-03T06:55:36.167Z,0.60
2023-02-03T06:56:38.323Z,0.50
2023-02-03T06:57:46.754Z,0.70
2023-02-03T06:58:48.673Z,0.50
2023-02-03T06:59:51.647Z,0.47
2023-02-03T07:00:56.838Z,0.50
2023-02-03T07:01:58.804Z,0.68
2023-02-03T07:03:02.380Z,0.50
2023-02-03T07:04:06.194Z,0.50
2023-02-03T07:05:08.855Z,0.40
2023-02-03T07:06:11.740Z,0.80
2023-02-03T07:07:14.853Z,0.57
2023-02-03T07:08:16.879Z,0.60
2023-02-03T07:09:19.795Z,0.60
2023-02-03T07:10:21.938Z,0.60
2023-02-03T07:11:25.117Z,0.75
2023-02-03T07:12:27.168Z,0.60
2023-02-03T07:13:31.482Z,0.70
2023-02-03T07:14:35.989Z,0.75
2023-02-03T07:15:38.050Z,0.80
2023-02-03T07:16:41.223Z,0.60
2023-02-03T07:17:44.148Z,0.50
2023-02-03T07:18:48.393Z,0.50
2023-02-03T07:19:50.358Z,0.70
2023-02-03T07:20:53.678Z,0.70
2023-02-03T07:21:58.091Z,0.55
2023-02-03T07:23:01.044Z,0.60
2023-02-03T07:24:04.015Z,0.60
2023-02-03T07:25:06.459Z,0.70
2023-02-03T07:26:10.964Z,0.60
2023-02-03T07:27:13.960Z,0.50
2023-02-03T07:28:16.981Z,0.50
2023-02-03T07:29:21.328Z,0.57
2023-02-03T07:30:23.441Z,0.50
2023-02-03T07:31:26.603Z,0.70
2023-02-03T07:32:28.696Z,0.57
2023-02-03T07:33:32.020Z,0.70
2023-02-03T07:34:33.977Z,0.50
2023-02-03T07:35:36.982Z,0.50
2023-02-03T07:36:38.978Z,0.80
2023-02-03T07:37:42.291Z,0.60
2023-02-03T07:38:45.231Z,0.60
2023-02-03T07:39:47.276Z,0.70
2023-02-03T07:40:50.361Z,0.45
2023-02-03T07:41:52.340Z,0.50
2023-02-03T07:42:55.295Z,0.47
2023-02-03T07:43:58.257Z,0.50
2023-02-03T07:45:02.631Z,0.60
2023-02-03T07:46:05.052Z,0.50
2023-02-03T07:47:08.049Z,0.60
2023-02-03T07:48:10.161Z,0.55
2023-02-03T07:49:13.431Z,0.63
2023-02-03T07:50:16.396Z,0.57
2023-02-03T07:51:19.347Z,0.40
2023-02-03T07:52:22.306Z,0.73
2023-02-03T07:53:25.315Z,0.50
2023-02-03T07:54:28.256Z,0.68
2023-02-03T07:55:30.479Z,0.50
2023-02-03T07:56:33.821Z,0.57
2023-02-03T07:57:37.052Z,0.50
2023-02-03T07:58:40.547Z,0.40
2023-02-03T07:59:43.472Z,0.65
2023-02-03T08:00:47.788Z,0.50
2023-02-03T08:01:50.788Z,0.40
2023-02-03T08:02:52.859Z,0.55
2023-02-03T08:03:55.876Z,0.60
2023-02-03T08:04:58.964Z,0.68
2023-02-03T08:06:00.910Z,0.70
2023-02-03T08:07:04.066Z,0.50
2023-02-03T08:08:06.039Z,0.70
2023-02-03T08:09:09.222Z,0.50
2023-02-03T08:10:14.089Z,0.60
2023-02-03T08:11:16.066Z,0.60
2023-02-03T08:12:19.035Z,0.60
2023-02-03T08:13:21.938Z,0.55
2023-02-03T08:14:25.002Z,0.52
2023-02-03T08:15:26.926Z,0.50
2023-02-03T08:16:31.300Z,0.60
2023-02-03T08:17:33.655Z,0.43
2023-02-03T08:18:36.632Z,0.60
2023-02-03T08:19:38.604Z,0.60
2023-02-03T08:20:41.683Z,0.40
2023-02-03T08:21:44.673Z,0.40
2023-02-03T08:22:46.767Z,0.50
2023-02-03T08:23:49.694Z,0.40
2023-02-03T08:24:51.949Z,0.50
2023-02-03T08:25:54.916Z,0.68
2023-02-03T08:26:57.832Z,0.60
2023-02-03T08:27:59.814Z,0.65
2023-02-03T08:29:03.691Z,0.50
2023-02-03T08:30:07.177Z,0.60
2023-02-03T08:31:13.727Z,0.40
2023-02-03T08:32:21.237Z,0.57
2023-02-03T08:33:24.241Z,0.82
2023-02-03T08:34:26.227Z,0.60
2023-02-03T08:35:29.599Z,0.40
2023-02-03T08:36:32.536Z,0.60
2023-02-03T08:37:35.584Z,0.80
2023-02-03T08:38:39.259Z,0.40
2023-02-03T08:39:42.795Z,0.52
2023-02-03T08:40:45.794Z,0.80
2023-02-03T08:41:47.738Z,0.50
2023-02-03T08:42:51.062Z,0.45
2023-02-03T08:43:54.153Z,0.50
2023-02-03T08:44:57.355Z,0.50
2023-02-03T08:46:04.051Z,0.50
2023-02-03T08:47:08.367Z,0.40
2023-02-03T08:48:12.805Z,0.50
2023-02-03T08:49:14.730Z,0.60
2023-02-03T08:50:18.291Z,0.50
2023-02-03T08:51:21.265Z,0.40
2023-02-03T08:52:24.928Z,0.40
2023-02-03T08:53:27.444Z,0.40
2023-02-03T08:54:30.391Z,0.50
2023-02-03T08:55:33.316Z,0.50
2023-02-03T08:56:36.378Z,0.40
2023-02-03T08:57:39.953Z,0.40
2023-02-03T08:58:41.901Z,0.60
2023-02-03T08:59:45.205Z,0.50
2023-02-03T09:00:49.796Z,0.60
2023-02-03T09:01:53.566Z,0.50
2023-02-03T09:02:55.607Z,0.60
2023-02-03T09:04:01.916Z,0.60
2023-02-03T09:05:05.082Z,0.60
2023-02-03T09:06:11.669Z,0.75
2023-02-03T09:07:14.091Z,0.40
2023-02-03T09:08:17.019Z,0.63
2023-02-03T09:09:18.915Z,0.40
2023-02-03T09:10:21.906Z,0.50
2023-02-03T09:11:24.982Z,0.40
2023-02-03T09:12:27.986Z,0.40
2023-02-03T09:13:29.944Z,0.47
2023-02-03T09:14:33.942Z,0.40
2023-02-03T09:15:36.979Z,0.73
2023-02-03T09:16:41.472Z,0.50
2023-02-03T09:17:44.491Z,0.60
2023-02-03T09:18:47.219Z,0.40
2023-02-03T09:19:51.524Z,0.52
2023-02-03T09:21:01.056Z,0.55
2023-02-03T09:22:04.198Z,0.55
2023-02-03T09:23:07.315Z,0.40
2023-02-03T09:24:09.339Z,0.50
2023-02-03T09:25:12.269Z,0.70
2023-02-03T09:26:15.942Z,0.50
2023-02-03T09:27:18.955Z,0.60
2023-02-03T09:28:21.924Z,0.50
2023-02-03T09:29:25.318Z,0.60
2023-02-03T09:30:29.508Z,0.50
2023-02-03T09:31:31.693Z,0.60
2023-02-03T09:32:35.073Z,0.50
2023-02-03T09:33:38.344Z,0.52
2023-02-03T09:34:41.364Z,0.50
2023-02-03T09:35:53.376Z,0.60
2023-02-03T09:36:56.292Z,0.50
2023-02-03T09:38:00.800Z,0.50
2023-02-03T09:39:03.795Z,0.60
2023-02-03T09:40:07.653Z,0.60
2023-02-03T09:41:23.599Z,0.50
2023-02-03T09:42:45.246Z,0.57
2023-02-03T09:43:52.788Z,0.60
2023-02-03T09:45:05.126Z,0.70
2023-02-03T09:46:13.636Z,0.47
2023-02-03T09:47:19.085Z,0.50
2023-02-03T09:48:25.831Z,0.63
2023-02-03T09:49:39.103Z,0.70
2023-02-03T09:50:44.270Z,0.80
2023-02-03T09:51:51.390Z,0.70
2023-02-03T09:52:55.263Z,0.50
2023-02-03T09:54:03.552Z,0.60
2023-02-03T09:55:14.495Z,0.77
2023-02-03T09:56:27.005Z,0.50
2023-02-03T09:57:32.211Z,0.70
2023-02-03T09:58:35.819Z,0.60
2023-02-03T09:59:38.763Z,0.60
2023-02-03T10:00:44.840Z,0.70
2023-02-03T10:01:55.116Z,0.65
2023-02-03T10:03:03.138Z,0.50
2023-02-03T10:04:19.667Z,0.75
2023-02-03T10:05:31.759Z,0.60
2023-02-03T10:06:39.191Z,0.50
2023-02-03T10:07:54.215Z,0.50
2023-02-03T10:09:07.539Z,0.50
2023-02-03T10:10:17.083Z,0.50
2023-02-03T10:11:31.063Z,0.60
2023-02-03T10:13:05.615Z,0.60
2023-02-03T10:14:21.913Z,0.63
2023-02-03T10:15:57.962Z,0.68
2023-02-03T10:17:13.287Z,0.60
2023-02-03T10:18:20.760Z,0.50
2023-02-03T10:19:29.179Z,0.80
2023-02-03T10:20:38.276Z,0.40
2023-02-03T10:21:45.825Z,0.40
2023-02-03T10:22:53.017Z,0.77
2023-02-03T10:23:57.435Z,0.80
2023-02-03T10:25:06.451Z,0.40
2023-02-03T10:26:15.213Z,0.77
2023-02-03T10:27:19.610Z,0.40
2023-02-03T10:28:24.293Z,0.70
2023-02-03T10:29:33.561Z,0.50
2023-02-03T10:30:45.473Z,0.50
2023-02-03T10:31:49.573Z,0.50
2023-02-03T10:32:55.792Z,0.40
2023-02-03T10:34:02.643Z,0.50
2023-02-03T10:35:12.026Z,0.50
2023-02-03T10:36:21.129Z,0.85
2023-02-03T10:37:30.235Z,0.50
2023-02-03T10:38:48.145Z,0.40
2023-02-03T10:39:53.092Z,0.70
2023-02-03T10:40:55.059Z,0.60
2023-02-03T10:41:58.379Z,0.40
2023-02-03T10:43:18.580Z,0.60
2023-02-03T10:44:23.648Z,0.40
2023-02-03T10:45:25.596Z,0.55
2023-02-03T10:46:30.304Z,0.40
2023-02-03T10:47:35.778Z,0.60
2023-02-03T10:48:37.771Z,0.40
2023-02-03T10:49:43.221Z,0.70
2023-02-03T10:50:51.265Z,0.30
2023-02-03T10:51:57.485Z,0.40
2023-02-03T10:53:23.038Z,0.45
2023-02-03T10:54:31.951Z,0.40
2023-02-03T10:55:34.957Z,0.40
2023-02-03T10:56:39.738Z,0.40
2023-02-03T10:57:41.961Z,0.57
2023-02-03T10:58:50.495Z,0.50
2023-02-03T10:59:52.627Z,0.40
2023-02-03T11:01:05.281Z,0.50
2023-02-03T11:02:10.708Z,0.40
2023-02-03T11:03:24.227Z,0.50
2023-02-03T11:04:28.042Z,0.63
2023-02-03T11:05:31.054Z,0.60
2023-02-03T11:06:36.315Z,0.50
2023-02-03T11:07:39.267Z,0.50
2023-02-03T11:08:44.276Z,0.82
2023-02-03T11:09:47.596Z,0.75
2023-02-03T11:10:50.654Z,0.50
2023-02-03T11:12:06.851Z,0.68
2023-02-03T11:13:20.744Z,0.50
2023-02-03T11:14:23.694Z,0.50
2023-02-03T11:15:27.020Z,0.40
2023-02-03T11:16:31.601Z,0.70
2023-02-03T11:17:36.595Z,0.70
2023-02-03T11:18:56.321Z,0.65
2023-02-03T11:20:02.991Z,0.40
2023-02-03T11:21:15.950Z,0.52
2023-02-03T11:22:29.716Z,0.68
2023-02-03T11:23:31.803Z,0.90
2023-02-03T11:24:39.594Z,0.50
2023-02-03T11:25:42.956Z,0.70
2023-02-03T11:26:50.544Z,0.52
2023-02-03T11:27:54.172Z,0.40
2023-02-03T11:29:00.369Z,0.45
2023-02-03T11:30:16.504Z,0.50
2023-02-03T11:31:26.436Z,0.60
2023-02-03T11:32:36.275Z,0.45
2023-02-03T11:33:38.998Z,0.60
2023-02-03T11:34:47.134Z,0.68
2023-02-03T11:35:56.126Z,0.65
2023-02-03T11:36:59.722Z,0.57
2023-02-03T11:38:03.347Z,0.47
2023-02-03T11:39:21.189Z,0.50
2023-02-03T11:40:29.533Z,0.47
2023-02-03T11:41:37.527Z,0.50
2023-02-03T11:42:42.448Z,0.50
2023-02-03T11:43:45.159Z,0.50
2023-02-03T11:44:48.079Z,0.45
2023-02-03T11:45:54.679Z,0.70
2023-02-03T11:47:00.642Z,0.50
2023-02-03T11:48:14.215Z,0.60
2023-02-03T11:50:03.483Z,0.50
2023-02-03T11:51:19.462Z,0.63
2023-02-03T11:52:51.385Z,0.55
2023-02-03T11:54:15.457Z,0.50
2023-02-03T11:55:27.351Z,0.50
2023-02-03T11:56:47.685Z,0.57
2023-02-03T11:58:00.189Z,0.47
2023-02-03T11:59:21.647Z,0.50
2023-02-03T12:00:36.066Z,0.40
2023-02-03T12:02:00.582Z,0.45
2023-02-03T12:03:36.324Z,0.60
2023-02-03T12:05:05.516Z,0.50
2023-02-03T12:06:21.782Z,0.60
2023-02-03T12:07:44.447Z,0.50
2023-02-03T12:09:05.212Z,0.52
2023-02-03T12:10:18.442Z,0.50
2023-02-03T12:11:34.123Z,0.40
2023-02-03T12:12:52.182Z,0.60
2023-02-03T12:14:09.737Z,0.60
2023-02-03T12:15:32.699Z,0.70
2023-02-03T12:16:55.781Z,0.55
2023-02-03T12:18:09.550Z,0.50
2023-02-03T12:19:20.787Z,0.50
2023-02-03T12:20:45.339Z,0.40
2023-02-03T12:21:55.086Z,0.60
2023-02-03T12:23:08.924Z,0.50
2023-02-03T12:24:24.268Z,0.50
2023-02-03T12:25:38.114Z,0.50
2023-02-03T12:26:51.676Z,0.50
2023-02-03T12:28:07.176Z,0.50
2023-02-03T12:29:15.526Z,0.40
2023-02-03T12:30:23.441Z,0.60
2023-02-03T12:31:32.420Z,0.40
2023-02-03T12:32:39.515Z,0.60
2023-02-03T12:33:46.935Z,0.57
2023-02-03T12:34:54.852Z,0.50
2023-02-03T12:36:00.268Z,0.70
2023-02-03T12:37:07.319Z,0.40
2023-02-03T12:38:17.996Z,0.40
2023-02-03T12:39:26.090Z,0.47
2023-02-03T12:40:36.797Z,0.47
2023-02-03T12:41:44.012Z,0.60
2023-02-03T12:42:54.214Z,0.50
2023-02-03T12:44:01.878Z,0.55
2023-02-03T12:45:07.523Z,0.60
2023-02-03T12:46:17.307Z,0.50
2023-02-03T12:47:27.527Z,0.68
2023-02-03T12:48:37.774Z,0.52
2023-02-03T12:49:45.013Z,0.40
2023-02-03T12:50:52.917Z,0.50
2023-02-03T12:52:01.282Z,0.40
2023-02-03T12:53:14.732Z,0.50
2023-02-03T12:54:31.026Z,0.52
2023-02-03T12:55:38.339Z,0.40
2023-02-03T12:56:44.605Z,0.60
2023-02-03T12:57:54.740Z,0.40
2023-02-03T12:59:05.055Z,0.60
2023-02-03T13:00:19.324Z,0.50
2023-02-03T13:01:24.599Z,0.50
2023-02-03T13:02:30.085Z,0.50
2023-02-03T13:03:40.108Z,0.40
2023-02-03T13:04:47.907Z,0.55
2023-02-03T13:05:55.706Z,0.50
2023-02-03T13:07:05.467Z,0.40
2023-02-03T13:08:17.452Z,0.50
2023-02-03T13:09:29.112Z,0.45
2023-02-03T13:10:38.550Z,0.60
2023-02-03T13:11:47.497Z,0.40
2023-02-03T13:12:56.712Z,0.40
2023-02-03T13:14:05.536Z,0.50
2023-02-03T13:15:21.646Z,0.50
2023-02-03T13:16:29.416Z,0.60
2023-02-03T13:17:39.787Z,0.60
2023-02-03T13:18:47.368Z,0.70
2023-02-03T13:19:53.999Z,0.50
2023-02-03T13:20:57.347Z,0.50
2023-02-03T13:21:59.322Z,0.50
2023-02-03T13:23:02.739Z,0.60
2023-02-03T13:24:06.367Z,0.50
2023-02-03T13:25:20.682Z,0.40
2023-02-03T13:26:50.259Z,0.50
2023-02-03T13:28:03.311Z,0.60
2023-02-03T13:29:28.340Z,0.50
2023-02-03T13:30:59.118Z,0.40
2023-02-03T13:32:14.669Z,0.50
2023-02-03T13:33:40.640Z,0.60
2023-02-03T13:34:56.344Z,0.47
2023-02-03T13:36:10.965Z,0.40
2023-02-03T13:37:46.490Z,0.40
2023-02-03T13:39:13.999Z,0.40
2023-02-03T13:40:32.852Z,0.40
2023-02-03T13:41:43.163Z,0.50
2023-02-03T13:42:52.930Z,0.47
2023-02-03T13:43:58.253Z,0.50
2023-02-03T13:45:10.497Z,0.93
2023-02-03T13:46:24.345Z,0.40
2023-02-03T13:47:29.127Z,0.40
2023-02-03T13:48:34.391Z,0.63
2023-02-03T13:49:37.509Z,0.60
2023-02-03T13:50:41.417Z,0.70
2023-02-03T13:51:46.291Z,1.00
2023-02-03T13:52:57.474Z,0.52
2023-02-03T13:54:04.061Z,1.45
2023-02-03T13:55:07.144Z,1.58
2023-02-03T13:56:17.698Z,0.40
2023-02-03T13:57:22.659Z,0.70
2023-02-03T13:58:27.873Z,0.55
2023-02-03T13:59:43.384Z,0.50
2023-02-03T14:01:07.954Z,0.55
2023-02-03T14:02:50.587Z,0.50
2023-02-03T14:03:54.119Z,2.00
2023-02-03T14:04:57.971Z,0.40
2023-02-03T14:06:03.036Z,0.80
2023-02-03T14:07:33.347Z,0.65
2023-02-03T14:08:59.695Z,0.50
2023-02-03T14:10:21.245Z,0.60
2023-02-03T14:11:44.903Z,0.60
2023-02-03T14:13:00.154Z,0.60
2023-02-03T14:14:35.583Z,0.50
2023-02-03T14:15:39.619Z,0.40
2023-02-03T14:16:44.217Z,0.50
2023-02-03T14:18:19.609Z,0.32
2023-02-03T14:19:55.775Z,0.30
2023-02-03T14:21:13.303Z,0.45
2023-02-03T14:22:18.790Z,0.35
2023-02-03T14:23:28.439Z,0.40
2023-02-03T14:24:33.633Z,0.40
2023-02-03T14:25:41.173Z,0.50
2023-02-03T14:26:45.743Z,0.40
2023-02-03T14:27:48.890Z,0.57
2023-02-03T14:28:53.951Z,0.43
2023-02-03T14:30:07.300Z,0.50
2023-02-03T14:31:26.242Z,0.40
2023-02-03T14:32:50.196Z,0.30
2023-02-03T14:34:15.305Z,0.95
2023-02-03T14:35:19.264Z,0.60
2023-02-03T14:36:53.001Z,0.35
2023-02-03T14:37:59.684Z,0.50
2023-02-03T14:39:04.471Z,0.50
2023-02-03T14:40:20.591Z,0.43
2023-02-03T14:41:28.605Z,0.40
2023-02-03T14:43:10.183Z,0.40
2023-02-03T14:44:28.179Z,0.30
2023-02-03T14:46:04.832Z,0.40
2023-02-03T14:47:13.581Z,0.40